sensor_id;sensor_type;location;lat;lon;timestamp;temperature;humidity
37642;DHT22;23486;51.956;5.888;2022-12-18T00:00:59;-3.30;99.90
37642;DHT22;23486;51.956;5.888;2022-12-18T00:03:25;-3.40;99.90
37642;DHT22;23486;51.956;5.888;2022-12-18T00:05:52;-3.40;99.90
37642;DHT22;23486;51.956;5.888;2022-12-18T00:08:18;-3.40;99.90
37642;DHT22;23486;51.956;5.888;2022-12-18T00:10:45;-3.40;99.90
37642;DHT22;23486;51.956;5.888;2022-12-18T00:13:14;-3.40;99.90
37642;DHT22;23486;51.956;5.888;2022-12-18T00:15:40;-3.40;99.90
37642;DHT22;23486;51.956;5.888;2022-12-18T00:18:06;-3.50;99.90
37642;DHT22;23486;51.956;5.888;2022-12-18T00:20:35;-3.50;99.90
37642;DHT22;23486;51.956;5.888;2022-12-18T00:23:01;-3.50;99.90
37642;DHT22;23486;51.956;5.888;2022-12-18T00:25:26;-3.50;99.90
37642;DHT22;23486;51.956;5.888;2022-12-18T00:27:52;-3.50;99.90
37642;DHT22;23486;51.956;5.888;2022-12-18T00:30:17;-3.60;99.90
37642;DHT22;23486;51.956;5.888;2022-12-18T00:32:43;-3.60;99.90
37642;DHT22;23486;51.956;5.888;2022-12-18T00:35:09;-3.60;99.90
37642;DHT22;23486;51.956;5.888;2022-12-18T00:37:34;-3.60;99.90
37642;DHT22;23486;51.956;5.888;2022-12-18T00:40:00;-3.60;99.90
37642;DHT22;23486;51.956;5.888;2022-12-18T00:42:26;-3.60;99.90
37642;DHT22;23486;51.956;5.888;2022-12-18T00:45:10;-3.60;99.90
37642;DHT22;23486;51.956;5.888;2022-12-18T00:47:35;-3.60;99.90
37642;DHT22;23486;51.956;5.888;2022-12-18T00:50:01;-3.60;99.90
37642;DHT22;23486;51.956;5.888;2022-12-18T00:52:26;-3.70;99.90
37642;DHT22;23486;51.956;5.888;2022-12-18T00:54:55;-3.70;99.90
37642;DHT22;23486;51.956;5.888;2022-12-18T00:57:20;-3.70;99.90
37642;DHT22;23486;51.956;5.888;2022-12-18T00:59:46;-3.70;99.90
37642;DHT22;23486;51.956;5.888;2022-12-18T01:02:11;-3.70;99.90
37642;DHT22;23486;51.956;5.888;2022-12-18T01:04:40;-3.80;99.90
37642;DHT22;23486;51.956;5.888;2022-12-18T01:07:05;-3.80;99.90
37642;DHT22;23486;51.956;5.888;2022-12-18T01:09:31;-3.80;99.90
37642;DHT22;23486;51.956;5.888;2022-12-18T01:11:56;-3.80;99.90
37642;DHT22;23486;51.956;5.888;2022-12-18T01:14:22;-3.80;99.90
37642;DHT22;23486;51.956;5.888;2022-12-18T01:16:47;-3.80;99.90
37642;DHT22;23486;51.956;5.888;2022-12-18T01:19:13;-3.80;99.90
37642;DHT22;23486;51.956;5.888;2022-12-18T01:21:39;-3.80;99.90
37642;DHT22;23486;51.956;5.888;2022-12-18T01:24:05;-3.80;99.90
37642;DHT22;23486;51.956;5.888;2022-12-18T01:26:31;-3.80;99.90
37642;DHT22;23486;51.956;5.888;2022-12-18T01:28:57;-3.80;99.90
37642;DHT22;23486;51.956;5.888;2022-12-18T01:31:28;-3.90;99.90
37642;DHT22;23486;51.956;5.888;2022-12-18T01:33:57;-3.90;99.90
37642;DHT22;23486;51.956;5.888;2022-12-18T01:36:27;-3.90;99.90
37642;DHT22;23486;51.956;5.888;2022-12-18T01:38:54;-3.90;99.90
37642;DHT22;23486;51.956;5.888;2022-12-18T01:41:27;-3.90;99.90
37642;DHT22;23486;51.956;5.888;2022-12-18T01:47:19;-3.90;99.90
37642;DHT22;23486;51.956;5.888;2022-12-18T01:49:45;-4.00;99.90
37642;DHT22;23486;51.956;5.888;2022-12-18T01:52:11;-4.00;99.90
37642;DHT22;23486;51.956;5.888;2022-12-18T01:54:37;-4.00;99.90
37642;DHT22;23486;51.956;5.888;2022-12-18T01:57:03;-4.00;99.90
37642;DHT22;23486;51.956;5.888;2022-12-18T01:59:30;-4.00;99.90
37642;DHT22;23486;51.956;5.888;2022-12-18T02:02:05;-4.00;99.90
37642;DHT22;23486;51.956;5.888;2022-12-18T02:04:31;-4.00;99.90
37642;DHT22;23486;51.956;5.888;2022-12-18T02:09:40;-4.00;99.90
37642;DHT22;23486;51.956;5.888;2022-12-18T02:12:24;-4.00;99.90
37642;DHT22;23486;51.956;5.888;2022-12-18T02:22:53;-4.10;99.90
37642;DHT22;23486;51.956;5.888;2022-12-18T02:28:13;-4.10;99.90
37642;DHT22;23486;51.956;5.888;2022-12-18T02:30:42;-4.20;99.90
37642;DHT22;23486;51.956;5.888;2022-12-18T02:33:09;-4.20;99.90
37642;DHT22;23486;51.956;5.888;2022-12-18T02:35:36;-4.20;99.90
37642;DHT22;23486;51.956;5.888;2022-12-18T02:38:04;-4.20;99.90
37642;DHT22;23486;51.956;5.888;2022-12-18T02:40:30;-4.20;99.90
37642;DHT22;23486;51.956;5.888;2022-12-18T02:43:06;-4.20;99.90
37642;DHT22;23486;51.956;5.888;2022-12-18T02:45:35;-4.20;99.90
37642;DHT22;23486;51.956;5.888;2022-12-18T02:48:01;-4.10;99.90
37642;DHT22;23486;51.956;5.888;2022-12-18T02:50:42;-4.20;99.90
37642;DHT22;23486;51.956;5.888;2022-12-18T02:53:20;-4.20;99.90
37642;DHT22;23486;51.956;5.888;2022-12-18T03:04:20;-4.20;99.90
37642;DHT22;23486;51.956;5.888;2022-12-18T03:06:50;-4.20;99.90
37642;DHT22;23486;51.956;5.888;2022-12-18T03:09:24;-4.20;99.90
37642;DHT22;23486;51.956;5.888;2022-12-18T03:11:54;-4.20;99.90
37642;DHT22;23486;51.956;5.888;2022-12-18T03:14:40;-4.30;99.90
37642;DHT22;23486;51.956;5.888;2022-12-18T03:17:12;-4.30;99.90
37642;DHT22;23486;51.956;5.888;2022-12-18T03:19:40;-4.30;99.90
37642;DHT22;23486;51.956;5.888;2022-12-18T03:22:07;-4.20;99.90
37642;DHT22;23486;51.956;5.888;2022-12-18T03:24:37;-4.20;99.90
37642;DHT22;23486;51.956;5.888;2022-12-18T03:27:08;-4.20;99.90
37642;DHT22;23486;51.956;5.888;2022-12-18T03:29:48;-4.20;99.90
37642;DHT22;23486;51.956;5.888;2022-12-18T03:32:21;-4.30;99.90
37642;DHT22;23486;51.956;5.888;2022-12-18T03:34:54;-4.30;99.90
37642;DHT22;23486;51.956;5.888;2022-12-18T03:37:20;-4.30;99.90
37642;DHT22;23486;51.956;5.888;2022-12-18T03:39:46;-4.30;99.90
37642;DHT22;23486;51.956;5.888;2022-12-18T03:48:20;-4.30;99.90
37642;DHT22;23486;51.956;5.888;2022-12-18T03:50:49;-4.30;99.90
37642;DHT22;23486;51.956;5.888;2022-12-18T03:53:28;-4.30;99.90
37642;DHT22;23486;51.956;5.888;2022-12-18T03:55:59;-4.30;99.90
37642;DHT22;23486;51.956;5.888;2022-12-18T03:58:26;-4.30;99.90
37642;DHT22;23486;51.956;5.888;2022-12-18T04:00:56;-4.30;99.90
37642;DHT22;23486;51.956;5.888;2022-12-18T04:03:26;-4.40;99.90
37642;DHT22;23486;51.956;5.888;2022-12-18T04:05:55;-4.40;99.90
37642;DHT22;23486;51.956;5.888;2022-12-18T04:08:22;-4.40;99.90
37642;DHT22;23486;51.956;5.888;2022-12-18T04:10:51;-4.40;99.90
37642;DHT22;23486;51.956;5.888;2022-12-18T04:13:34;-4.30;99.90
37642;DHT22;23486;51.956;5.888;2022-12-18T04:16:00;-4.30;99.90
37642;DHT22;23486;51.956;5.888;2022-12-18T04:18:26;-4.40;99.90
37642;DHT22;23486;51.956;5.888;2022-12-18T04:20:52;-4.30;99.90
37642;DHT22;23486;51.956;5.888;2022-12-18T04:23:17;-4.30;99.90
37642;DHT22;23486;51.956;5.888;2022-12-18T04:25:43;-4.30;99.90
37642;DHT22;23486;51.956;5.888;2022-12-18T04:28:09;-4.30;99.90
37642;DHT22;23486;51.956;5.888;2022-12-18T04:30:34;-4.30;99.90
37642;DHT22;23486;51.956;5.888;2022-12-18T04:33:03;-4.30;99.90
37642;DHT22;23486;51.956;5.888;2022-12-18T04:35:28;-4.30;99.90
37642;DHT22;23486;51.956;5.888;2022-12-18T04:37:54;-4.40;99.90
37642;DHT22;23486;51.956;5.888;2022-12-18T04:40:19;-4.30;99.90
37642;DHT22;23486;51.956;5.888;2022-12-18T04:42:45;-4.40;99.90
37642;DHT22;23486;51.956;5.888;2022-12-18T04:45:10;-4.40;99.90
37642;DHT22;23486;51.956;5.888;2022-12-18T04:47:36;-4.40;99.90
37642;DHT22;23486;51.956;5.888;2022-12-18T04:50:02;-4.40;99.90
37642;DHT22;23486;51.956;5.888;2022-12-18T04:52:27;-4.40;99.90
37642;DHT22;23486;51.956;5.888;2022-12-18T04:54:53;-4.40;99.90
37642;DHT22;23486;51.956;5.888;2022-12-18T04:57:19;-4.40;99.90
37642;DHT22;23486;51.956;5.888;2022-12-18T04:59:44;-4.40;99.90
37642;DHT22;23486;51.956;5.888;2022-12-18T05:02:10;-4.40;99.90
37642;DHT22;23486;51.956;5.888;2022-12-18T05:04:38;-4.40;99.90
37642;DHT22;23486;51.956;5.888;2022-12-18T05:07:04;-4.40;99.90
37642;DHT22;23486;51.956;5.888;2022-12-18T05:09:32;-4.30;99.90
37642;DHT22;23486;51.956;5.888;2022-12-18T05:11:58;-4.40;99.90
37642;DHT22;23486;51.956;5.888;2022-12-18T05:14:24;-4.40;99.90
37642;DHT22;23486;51.956;5.888;2022-12-18T05:16:49;-4.40;99.90
37642;DHT22;23486;51.956;5.888;2022-12-18T05:19:15;-4.40;99.90
37642;DHT22;23486;51.956;5.888;2022-12-18T05:21:40;-4.40;99.90
37642;DHT22;23486;51.956;5.888;2022-12-18T05:24:06;-4.50;99.90
37642;DHT22;23486;51.956;5.888;2022-12-18T05:26:32;-4.50;99.90
37642;DHT22;23486;51.956;5.888;2022-12-18T05:28:57;-4.50;99.90
37642;DHT22;23486;51.956;5.888;2022-12-18T05:31:23;-4.50;99.90
37642;DHT22;23486;51.956;5.888;2022-12-18T05:33:48;-4.50;99.90
37642;DHT22;23486;51.956;5.888;2022-12-18T05:36:14;-4.50;99.90
37642;DHT22;23486;51.956;5.888;2022-12-18T05:38:40;-4.60;99.90
37642;DHT22;23486;51.956;5.888;2022-12-18T05:41:07;-4.60;99.90
37642;DHT22;23486;51.956;5.888;2022-12-18T05:43:35;-4.60;99.90
37642;DHT22;23486;51.956;5.888;2022-12-18T05:46:11;-4.60;99.90
37642;DHT22;23486;51.956;5.888;2022-12-18T05:48:37;-4.60;99.90
37642;DHT22;23486;51.956;5.888;2022-12-18T05:51:05;-4.60;99.90
37642;DHT22;23486;51.956;5.888;2022-12-18T05:53:31;-4.60;99.90
37642;DHT22;23486;51.956;5.888;2022-12-18T05:56:03;-4.50;99.90
37642;DHT22;23486;51.956;5.888;2022-12-18T05:58:30;-4.50;99.90
37642;DHT22;23486;51.956;5.888;2022-12-18T06:00:56;-4.50;99.90
37642;DHT22;23486;51.956;5.888;2022-12-18T06:03:25;-4.40;99.90
37642;DHT22;23486;51.956;5.888;2022-12-18T06:05:50;-4.40;99.90
37642;DHT22;23486;51.956;5.888;2022-12-18T06:08:16;-4.40;99.90
37642;DHT22;23486;51.956;5.888;2022-12-18T06:10:41;-4.40;99.90
37642;DHT22;23486;51.956;5.888;2022-12-18T06:13:07;-4.40;99.90
37642;DHT22;23486;51.956;5.888;2022-12-18T06:15:36;-4.40;99.90
37642;DHT22;23486;51.956;5.888;2022-12-18T06:18:02;-4.40;99.90
37642;DHT22;23486;51.956;5.888;2022-12-18T06:20:28;-4.30;99.90
37642;DHT22;23486;51.956;5.888;2022-12-18T06:22:56;-4.30;99.90
37642;DHT22;23486;51.956;5.888;2022-12-18T06:25:22;-4.30;99.90
37642;DHT22;23486;51.956;5.888;2022-12-18T06:27:47;-4.30;99.90
37642;DHT22;23486;51.956;5.888;2022-12-18T06:30:16;-4.30;99.90
37642;DHT22;23486;51.956;5.888;2022-12-18T06:32:42;-4.30;99.90
37642;DHT22;23486;51.956;5.888;2022-12-18T06:35:11;-4.30;99.90
37642;DHT22;23486;51.956;5.888;2022-12-18T06:37:36;-4.30;99.90
37642;DHT22;23486;51.956;5.888;2022-12-18T06:40:02;-4.30;99.90
37642;DHT22;23486;51.956;5.888;2022-12-18T06:42:28;-4.30;99.90
37642;DHT22;23486;51.956;5.888;2022-12-18T06:44:57;-4.30;99.90
37642;DHT22;23486;51.956;5.888;2022-12-18T06:47:22;-4.30;99.90
37642;DHT22;23486;51.956;5.888;2022-12-18T06:49:48;-4.30;99.90
37642;DHT22;23486;51.956;5.888;2022-12-18T06:52:13;-4.30;99.90
37642;DHT22;23486;51.956;5.888;2022-12-18T06:54:42;-4.30;99.90
37642;DHT22;23486;51.956;5.888;2022-12-18T06:57:07;-4.30;99.90
37642;DHT22;23486;51.956;5.888;2022-12-18T06:59:33;-4.30;99.90
37642;DHT22;23486;51.956;5.888;2022-12-18T07:01:59;-4.20;99.90
37642;DHT22;23486;51.956;5.888;2022-12-18T07:04:31;-4.20;99.90
37642;DHT22;23486;51.956;5.888;2022-12-18T07:06:57;-4.30;99.90
37642;DHT22;23486;51.956;5.888;2022-12-18T07:09:23;-4.30;99.90
37642;DHT22;23486;51.956;5.888;2022-12-18T07:11:51;-4.20;99.90
37642;DHT22;23486;51.956;5.888;2022-12-18T07:14:17;-4.20;99.90
37642;DHT22;23486;51.956;5.888;2022-12-18T07:16:42;-4.20;99.90
37642;DHT22;23486;51.956;5.888;2022-12-18T07:19:08;-4.20;99.90
37642;DHT22;23486;51.956;5.888;2022-12-18T07:21:33;-4.20;99.90
37642;DHT22;23486;51.956;5.888;2022-12-18T07:23:59;-4.20;99.90
37642;DHT22;23486;51.956;5.888;2022-12-18T07:26:25;-4.20;99.90
37642;DHT22;23486;51.956;5.888;2022-12-18T07:28:55;-4.20;99.90
37642;DHT22;23486;51.956;5.888;2022-12-18T07:31:21;-4.20;99.90
37642;DHT22;23486;51.956;5.888;2022-12-18T07:33:47;-4.20;99.90
37642;DHT22;23486;51.956;5.888;2022-12-18T07:36:13;-4.20;99.90
37642;DHT22;23486;51.956;5.888;2022-12-18T07:38:39;-4.20;99.90
37642;DHT22;23486;51.956;5.888;2022-12-18T07:41:12;-4.10;99.90
37642;DHT22;23486;51.956;5.888;2022-12-18T07:43:38;-4.10;99.90
37642;DHT22;23486;51.956;5.888;2022-12-18T07:46:05;-4.20;99.90
37642;DHT22;23486;51.956;5.888;2022-12-18T07:48:40;-4.10;99.90
37642;DHT22;23486;51.956;5.888;2022-12-18T07:51:06;-4.20;99.90
37642;DHT22;23486;51.956;5.888;2022-12-18T07:53:33;-4.10;99.90
37642;DHT22;23486;51.956;5.888;2022-12-18T07:56:01;-4.10;99.90
37642;DHT22;23486;51.956;5.888;2022-12-18T07:58:28;-4.00;99.90
37642;DHT22;23486;51.956;5.888;2022-12-18T08:00:53;-4.10;99.90
37642;DHT22;23486;51.956;5.888;2022-12-18T08:03:19;-4.00;99.90
37642;DHT22;23486;51.956;5.888;2022-12-18T08:05:45;-3.90;99.90
37642;DHT22;23486;51.956;5.888;2022-12-18T08:08:11;-3.90;99.90
37642;DHT22;23486;51.956;5.888;2022-12-18T08:10:37;-3.80;99.90
37642;DHT22;23486;51.956;5.888;2022-12-18T08:13:06;-3.80;99.90
37642;DHT22;23486;51.956;5.888;2022-12-18T08:15:31;-3.70;99.90
37642;DHT22;23486;51.956;5.888;2022-12-18T08:17:57;-3.70;99.90
37642;DHT22;23486;51.956;5.888;2022-12-18T08:20:23;-3.60;99.90
37642;DHT22;23486;51.956;5.888;2022-12-18T08:22:48;-3.50;99.90
37642;DHT22;23486;51.956;5.888;2022-12-18T08:25:14;-3.50;99.90
37642;DHT22;23486;51.956;5.888;2022-12-18T08:27:39;-3.50;99.90
37642;DHT22;23486;51.956;5.888;2022-12-18T08:30:05;-3.40;99.90
37642;DHT22;23486;51.956;5.888;2022-12-18T08:32:32;-3.30;99.90
37642;DHT22;23486;51.956;5.888;2022-12-18T08:34:58;-3.30;99.90
37642;DHT22;23486;51.956;5.888;2022-12-18T08:37:24;-3.20;99.90
37642;DHT22;23486;51.956;5.888;2022-12-18T08:39:49;-3.20;99.90
37642;DHT22;23486;51.956;5.888;2022-12-18T08:42:15;-3.10;99.90
37642;DHT22;23486;51.956;5.888;2022-12-18T08:44:59;-3.10;99.90
37642;DHT22;23486;51.956;5.888;2022-12-18T08:47:27;-3.00;99.90
37642;DHT22;23486;51.956;5.888;2022-12-18T08:49:55;-3.00;99.90
37642;DHT22;23486;51.956;5.888;2022-12-18T08:52:21;-2.90;99.90
37642;DHT22;23486;51.956;5.888;2022-12-18T08:54:47;-2.80;99.90
37642;DHT22;23486;51.956;5.888;2022-12-18T08:57:15;-2.80;99.90
37642;DHT22;23486;51.956;5.888;2022-12-18T08:59:41;-2.70;99.90
37642;DHT22;23486;51.956;5.888;2022-12-18T09:02:09;-2.70;99.90
37642;DHT22;23486;51.956;5.888;2022-12-18T09:04:35;-2.60;99.90
37642;DHT22;23486;51.956;5.888;2022-12-18T09:07:03;-2.60;99.90
37642;DHT22;23486;51.956;5.888;2022-12-18T09:09:29;-2.50;99.90
37642;DHT22;23486;51.956;5.888;2022-12-18T09:11:54;-2.50;99.90
37642;DHT22;23486;51.956;5.888;2022-12-18T09:14:20;-2.40;99.90
37642;DHT22;23486;51.956;5.888;2022-12-18T09:16:46;-2.40;99.90
37642;DHT22;23486;51.956;5.888;2022-12-18T09:19:11;-2.30;99.90
37642;DHT22;23486;51.956;5.888;2022-12-18T09:21:37;-2.20;99.90
37642;DHT22;23486;51.956;5.888;2022-12-18T09:24:15;-2.10;99.90
37642;DHT22;23486;51.956;5.888;2022-12-18T09:26:41;-2.10;99.90
37642;DHT22;23486;51.956;5.888;2022-12-18T09:29:07;-2.00;99.90
37642;DHT22;23486;51.956;5.888;2022-12-18T09:31:32;-1.90;99.90
37642;DHT22;23486;51.956;5.888;2022-12-18T09:33:58;-1.80;99.90
37642;DHT22;23486;51.956;5.888;2022-12-18T09:36:24;-1.80;99.90
37642;DHT22;23486;51.956;5.888;2022-12-18T09:38:49;-1.70;99.90
37642;DHT22;23486;51.956;5.888;2022-12-18T09:41:43;-1.70;99.90
37642;DHT22;23486;51.956;5.888;2022-12-18T09:44:33;-1.60;99.90
37642;DHT22;23486;51.956;5.888;2022-12-18T09:47:08;-1.60;99.90
37642;DHT22;23486;51.956;5.888;2022-12-18T09:49:42;-1.50;99.90
37642;DHT22;23486;51.956;5.888;2022-12-18T09:55:11;-1.40;99.90
37642;DHT22;23486;51.956;5.888;2022-12-18T09:57:44;-1.40;99.90
37642;DHT22;23486;51.956;5.888;2022-12-18T10:02:46;-1.30;99.90
37642;DHT22;23486;51.956;5.888;2022-12-18T10:05:14;-1.30;99.90
37642;DHT22;23486;51.956;5.888;2022-12-18T10:10:28;-1.20;99.90
37642;DHT22;23486;51.956;5.888;2022-12-18T10:15:49;-1.10;99.90
37642;DHT22;23486;51.956;5.888;2022-12-18T10:21:15;-1.00;99.90
37642;DHT22;23486;51.956;5.888;2022-12-18T10:23:54;-1.00;99.90
37642;DHT22;23486;51.956;5.888;2022-12-18T10:26:22;-0.90;99.90
37642;DHT22;23486;51.956;5.888;2022-12-18T10:28:49;-0.80;99.90
37642;DHT22;23486;51.956;5.888;2022-12-18T10:31:21;-0.80;99.90
37642;DHT22;23486;51.956;5.888;2022-12-18T10:33:47;-0.80;99.90
37642;DHT22;23486;51.956;5.888;2022-12-18T10:36:13;-0.70;99.90
37642;DHT22;23486;51.956;5.888;2022-12-18T10:38:39;-0.60;99.90
37642;DHT22;23486;51.956;5.888;2022-12-18T10:41:25;-0.60;99.90
37642;DHT22;23486;51.956;5.888;2022-12-18T10:44:26;-0.50;99.90
37642;DHT22;23486;51.956;5.888;2022-12-18T10:47:03;-0.50;99.90
37642;DHT22;23486;51.956;5.888;2022-12-18T10:49:32;-0.40;99.90
37642;DHT22;23486;51.956;5.888;2022-12-18T10:52:18;-0.40;99.90
37642;DHT22;23486;51.956;5.888;2022-12-18T10:55:02;-0.40;99.90
37642;DHT22;23486;51.956;5.888;2022-12-18T10:57:39;-0.30;99.90
37642;DHT22;23486;51.956;5.888;2022-12-18T11:02:50;-0.20;99.90
37642;DHT22;23486;51.956;5.888;2022-12-18T11:05:32;-0.20;99.90
37642;DHT22;23486;51.956;5.888;2022-12-18T11:08:11;-0.20;99.90
37642;DHT22;23486;51.956;5.888;2022-12-18T11:10:46;-0.10;99.90
37642;DHT22;23486;51.956;5.888;2022-12-18T11:13:24;-0.10;99.90
37642;DHT22;23486;51.956;5.888;2022-12-18T11:15:53;-0.10;99.90
37642;DHT22;23486;51.956;5.888;2022-12-18T11:20:59;0.00;99.90
37642;DHT22;23486;51.956;5.888;2022-12-18T11:23:26;0.00;99.90
37642;DHT22;23486;51.956;5.888;2022-12-18T11:25:57;0.00;99.90
37642;DHT22;23486;51.956;5.888;2022-12-18T11:28:41;0.10;99.90
37642;DHT22;23486;51.956;5.888;2022-12-18T11:33:54;0.10;99.90
37642;DHT22;23486;51.956;5.888;2022-12-18T11:36:22;0.10;99.90
37642;DHT22;23486;51.956;5.888;2022-12-18T11:38:49;0.20;99.90
37642;DHT22;23486;51.956;5.888;2022-12-18T11:41:21;0.20;99.90
37642;DHT22;23486;51.956;5.888;2022-12-18T11:44:11;0.20;99.90
37642;DHT22;23486;51.956;5.888;2022-12-18T11:46:45;0.20;99.90
37642;DHT22;23486;51.956;5.888;2022-12-18T11:49:18;0.30;99.90
37642;DHT22;23486;51.956;5.888;2022-12-18T11:57:54;0.40;99.90
37642;DHT22;23486;51.956;5.888;2022-12-18T12:00:22;0.40;99.90
37642;DHT22;23486;51.956;5.888;2022-12-18T12:06:08;0.40;99.90
37642;DHT22;23486;51.956;5.888;2022-12-18T12:08:58;0.50;99.90
37642;DHT22;23486;51.956;5.888;2022-12-18T12:14:57;0.50;99.90
37642;DHT22;23486;51.956;5.888;2022-12-18T12:17:49;0.50;99.90
37642;DHT22;23486;51.956;5.888;2022-12-18T12:26:08;0.50;99.90
37642;DHT22;23486;51.956;5.888;2022-12-18T12:34:16;0.60;99.90
37642;DHT22;23486;51.956;5.888;2022-12-18T12:37:04;0.60;99.90
37642;DHT22;23486;51.956;5.888;2022-12-18T12:39:40;0.60;99.90
37642;DHT22;23486;51.956;5.888;2022-12-18T12:42:33;0.60;99.90
37642;DHT22;23486;51.956;5.888;2022-12-18T12:45:48;0.60;99.90
37642;DHT22;23486;51.956;5.888;2022-12-18T12:48:26;0.60;99.90
37642;DHT22;23486;51.956;5.888;2022-12-18T12:50:54;0.60;99.90
37642;DHT22;23486;51.956;5.888;2022-12-18T12:53:27;0.60;99.90
37642;DHT22;23486;51.956;5.888;2022-12-18T12:55:55;0.60;99.90
37642;DHT22;23486;51.956;5.888;2022-12-18T13:03:35;0.60;99.90
37642;DHT22;23486;51.956;5.888;2022-12-18T13:06:24;0.60;99.90
37642;DHT22;23486;51.956;5.888;2022-12-18T13:08:58;0.60;99.90
37642;DHT22;23486;51.956;5.888;2022-12-18T13:12:01;0.70;99.90
37642;DHT22;23486;51.956;5.888;2022-12-18T13:14:45;0.60;99.90
37642;DHT22;23486;51.956;5.888;2022-12-18T13:17:29;0.70;99.90
37642;DHT22;23486;51.956;5.888;2022-12-18T13:20:09;0.60;99.90
37642;DHT22;23486;51.956;5.888;2022-12-18T13:22:38;0.70;99.90
37642;DHT22;23486;51.956;5.888;2022-12-18T13:38:34;0.60;99.90
37642;DHT22;23486;51.956;5.888;2022-12-18T13:46:23;0.60;99.90
37642;DHT22;23486;51.956;5.888;2022-12-18T13:49:02;0.60;99.90
37642;DHT22;23486;51.956;5.888;2022-12-18T13:51:29;0.60;99.90
37642;DHT22;23486;51.956;5.888;2022-12-18T13:54:02;0.60;99.90
37642;DHT22;23486;51.956;5.888;2022-12-18T13:56:33;0.60;99.90
37642;DHT22;23486;51.956;5.888;2022-12-18T14:01:34;0.60;99.90
37642;DHT22;23486;51.956;5.888;2022-12-18T14:04:18;0.60;99.90
37642;DHT22;23486;51.956;5.888;2022-12-18T14:06:45;0.60;99.90
37642;DHT22;23486;51.956;5.888;2022-12-18T14:09:29;0.60;99.90
37642;DHT22;23486;51.956;5.888;2022-12-18T14:11:57;0.60;99.90
37642;DHT22;23486;51.956;5.888;2022-12-18T14:14:44;0.60;99.90
37642;DHT22;23486;51.956;5.888;2022-12-18T14:17:11;0.60;99.90
37642;DHT22;23486;51.956;5.888;2022-12-18T14:19:40;0.60;99.90
37642;DHT22;23486;51.956;5.888;2022-12-18T14:22:15;0.60;99.90
37642;DHT22;23486;51.956;5.888;2022-12-18T14:24:44;0.60;99.90
37642;DHT22;23486;51.956;5.888;2022-12-18T14:27:22;0.60;99.90
37642;DHT22;23486;51.956;5.888;2022-12-18T14:29:47;0.60;99.90
37642;DHT22;23486;51.956;5.888;2022-12-18T14:32:19;0.60;99.90
37642;DHT22;23486;51.956;5.888;2022-12-18T14:37:21;0.60;99.90
37642;DHT22;23486;51.956;5.888;2022-12-18T14:39:58;0.60;99.90
37642;DHT22;23486;51.956;5.888;2022-12-18T14:42:25;0.60;99.90
37642;DHT22;23486;51.956;5.888;2022-12-18T14:47:58;0.60;99.90
37642;DHT22;23486;51.956;5.888;2022-12-18T14:50:24;0.60;99.90
37642;DHT22;23486;51.956;5.888;2022-12-18T14:52:50;0.60;99.90
37642;DHT22;23486;51.956;5.888;2022-12-18T14:55:17;0.60;99.90
37642;DHT22;23486;51.956;5.888;2022-12-18T14:57:43;0.50;99.90
37642;DHT22;23486;51.956;5.888;2022-12-18T15:00:18;0.50;99.90
37642;DHT22;23486;51.956;5.888;2022-12-18T15:02:46;0.50;99.90
37642;DHT22;23486;51.956;5.888;2022-12-18T15:07:50;0.50;99.90
37642;DHT22;23486;51.956;5.888;2022-12-18T15:10:27;0.50;99.90
37642;DHT22;23486;51.956;5.888;2022-12-18T15:18:13;0.40;99.90
37642;DHT22;23486;51.956;5.888;2022-12-18T15:33:37;0.40;99.90
37642;DHT22;23486;51.956;5.888;2022-12-18T15:36:10;0.40;99.90
37642;DHT22;23486;51.956;5.888;2022-12-18T15:38:36;0.40;99.90
37642;DHT22;23486;51.956;5.888;2022-12-18T15:41:02;0.40;99.90
37642;DHT22;23486;51.956;5.888;2022-12-18T15:43:28;0.40;99.90
37642;DHT22;23486;51.956;5.888;2022-12-18T15:48:42;0.30;99.90
37642;DHT22;23486;51.956;5.888;2022-12-18T15:51:23;0.40;99.90
37642;DHT22;23486;51.956;5.888;2022-12-18T15:53:52;0.30;99.90
37642;DHT22;23486;51.956;5.888;2022-12-18T15:56:19;0.40;99.90
37642;DHT22;23486;51.956;5.888;2022-12-18T15:59:13;0.40;99.90
37642;DHT22;23486;51.956;5.888;2022-12-18T16:01:39;0.30;99.90
37642;DHT22;23486;51.956;5.888;2022-12-18T16:04:05;0.30;99.90
37642;DHT22;23486;51.956;5.888;2022-12-18T16:06:31;0.30;99.90
37642;DHT22;23486;51.956;5.888;2022-12-18T16:08:56;0.30;99.90
37642;DHT22;23486;51.956;5.888;2022-12-18T16:11:25;0.30;99.90
37642;DHT22;23486;51.956;5.888;2022-12-18T16:14:22;0.30;99.90
37642;DHT22;23486;51.956;5.888;2022-12-18T16:16:51;0.30;99.90
37642;DHT22;23486;51.956;5.888;2022-12-18T16:19:18;0.30;99.90
37642;DHT22;23486;51.956;5.888;2022-12-18T16:21:45;0.30;99.90
37642;DHT22;23486;51.956;5.888;2022-12-18T16:24:21;0.30;99.90
37642;DHT22;23486;51.956;5.888;2022-12-18T16:26:51;0.30;99.90
37642;DHT22;23486;51.956;5.888;2022-12-18T16:29:18;0.30;99.90
37642;DHT22;23486;51.956;5.888;2022-12-18T16:31:50;0.30;99.90
37642;DHT22;23486;51.956;5.888;2022-12-18T16:34:20;0.30;99.90
37642;DHT22;23486;51.956;5.888;2022-12-18T16:36:48;0.30;99.90
37642;DHT22;23486;51.956;5.888;2022-12-18T16:39:14;0.30;99.90
37642;DHT22;23486;51.956;5.888;2022-12-18T16:41:39;0.30;99.90
37642;DHT22;23486;51.956;5.888;2022-12-18T16:44:05;0.20;99.90
37642;DHT22;23486;51.956;5.888;2022-12-18T16:46:31;0.20;99.90
37642;DHT22;23486;51.956;5.888;2022-12-18T16:48:57;0.30;99.90
37642;DHT22;23486;51.956;5.888;2022-12-18T16:51:24;0.20;99.90
37642;DHT22;23486;51.956;5.888;2022-12-18T16:54:02;0.20;99.90
37642;DHT22;23486;51.956;5.888;2022-12-18T16:56:27;0.20;99.90
37642;DHT22;23486;51.956;5.888;2022-12-18T16:58:56;0.20;99.90
37642;DHT22;23486;51.956;5.888;2022-12-18T17:01:26;0.20;99.90
37642;DHT22;23486;51.956;5.888;2022-12-18T17:03:56;0.20;99.90
37642;DHT22;23486;51.956;5.888;2022-12-18T17:06:26;0.20;99.90
37642;DHT22;23486;51.956;5.888;2022-12-18T17:09:08;0.20;99.90
37642;DHT22;23486;51.956;5.888;2022-12-18T17:11:35;0.20;99.90
37642;DHT22;23486;51.956;5.888;2022-12-18T17:14:09;0.30;99.90
37642;DHT22;23486;51.956;5.888;2022-12-18T17:16:35;0.20;99.90
37642;DHT22;23486;51.956;5.888;2022-12-18T17:19:01;0.20;99.90
37642;DHT22;23486;51.956;5.888;2022-12-18T17:21:26;0.20;99.90
37642;DHT22;23486;51.956;5.888;2022-12-18T17:23:52;0.20;99.90
37642;DHT22;23486;51.956;5.888;2022-12-18T17:26:17;0.20;99.90
37642;DHT22;23486;51.956;5.888;2022-12-18T17:28:43;0.20;99.90
37642;DHT22;23486;51.956;5.888;2022-12-18T17:31:14;0.20;99.90
37642;DHT22;23486;51.956;5.888;2022-12-18T17:33:41;0.20;99.90
37642;DHT22;23486;51.956;5.888;2022-12-18T17:36:07;0.20;99.90
37642;DHT22;23486;51.956;5.888;2022-12-18T17:38:33;0.20;99.90
37642;DHT22;23486;51.956;5.888;2022-12-18T17:41:07;0.20;99.90
37642;DHT22;23486;51.956;5.888;2022-12-18T17:43:42;0.20;99.90
37642;DHT22;23486;51.956;5.888;2022-12-18T17:46:12;0.30;99.90
37642;DHT22;23486;51.956;5.888;2022-12-18T17:48:38;0.30;99.90
37642;DHT22;23486;51.956;5.888;2022-12-18T17:51:06;0.20;99.90
37642;DHT22;23486;51.956;5.888;2022-12-18T17:53:32;0.20;99.90
37642;DHT22;23486;51.956;5.888;2022-12-18T17:55:59;0.30;99.90
37642;DHT22;23486;51.956;5.888;2022-12-18T17:58:26;0.30;99.90
37642;DHT22;23486;51.956;5.888;2022-12-18T18:00:52;0.20;99.90
37642;DHT22;23486;51.956;5.888;2022-12-18T18:03:18;0.30;99.90